Time;durP1;ratioP1;P1;durP2;ratioP2;P2;SDS_P1;SDS_P2;PMS_P1;PMS_P2;Temp;Humidity;BMP_temperature;BMP_pressure;BME280_temperature;BME280_humidity;BME280_pressure;Samples;Min_cycle;Max_cycle;Signal;HPM_P1;HPM_P2
2023/05/24 04:00:25;;;;;;;4.80;1.57;;;9.10;97.30;;;;;;6090609;23;21163;31
2023/05/24 04:02:50;;;;;;;8.10;3.50;;;9.10;97.30;;;;;;4964723;28;20456;-90
2023/05/24 04:05:16;;;;;;;1.63;1.60;;;9.10;97.30;;;;;;4990977;28;20463;-91
2023/05/24 04:07:42;;;;;;;5.80;2.90;;;9.10;97.30;;;;;;4992111;28;20189;-91
2023/05/24 04:10:08;;;;;;;1.60;1.50;;;9.10;97.30;;;;;;4984371;28;20593;-91
2023/05/24 04:12:34;;;;;;;1.37;1.27;;;9.00;97.30;;;;;;4989689;28;20441;-90
2023/05/24 04:15:00;;;;;;;4.20;1.60;;;9.00;97.30;;;;;;5028393;23;20500;-85
2023/05/24 04:17:28;;;;;;;6.00;3.13;;;9.00;97.30;;;;;;5010565;28;20198;-86
2023/05/24 04:19:53;;;;;;;2.43;2.23;;;9.00;97.30;;;;;;5018222;28;20424;-86
2023/05/24 04:22:19;;;;;;;8.43;2.60;;;9.00;97.30;;;;;;5011533;28;20422;-86
2023/05/24 04:24:45;;;;;;;5.73;3.40;;;9.00;97.30;;;;;;5010724;28;20218;-87
2023/05/24 04:27:10;;;;;;;1.87;1.77;;;9.00;97.30;;;;;;5010985;28;20203;-86
2023/05/24 04:29:38;;;;;;;2.47;2.27;;;9.00;97.30;;;;;;5011792;28;20240;-83
2023/05/24 04:32:05;;;;;;;4.73;2.10;;;9.00;97.30;;;;;;4994853;28;20177;-86
2023/05/24 04:34:32;;;;;;;8.93;3.67;;;9.00;97.30;;;;;;5010463;28;20454;-86
2023/05/24 04:36:58;;;;;;;7.30;2.40;;;9.00;97.30;;;;;;5012131;28;20420;-86
2023/05/24 04:39:24;;;;;;;1.40;1.30;;;9.00;97.30;;;;;;5010451;28;20432;-86
2023/05/24 04:41:50;;;;;;;1.60;1.50;;;9.00;97.30;;;;;;5010220;28;20434;-86
2023/05/24 04:44:16;;;;;;;1.67;1.50;;;9.00;97.30;;;;;;5019467;28;20220;-84
2023/05/24 04:46:41;;;;;;;8.20;2.30;;;9.00;97.30;;;;;;5011505;28;20433;-84
2023/05/24 04:49:07;;;;;;;2.23;2.03;;;9.00;97.30;;;;;;5018587;28;20609;-86
2023/05/24 04:51:33;;;;;;;14.87;2.23;;;9.00;97.30;;;;;;5011695;28;20698;-86
2023/05/24 04:54:00;;;;;;;2.90;1.90;;;9.00;97.30;;;;;;5010114;28;20546;-86
2023/05/24 04:56:25;;;;;;;5.43;2.57;;;9.00;97.30;;;;;;5010554;28;20605;-86
2023/05/24 04:58:51;;;;;;;3.37;2.60;;;9.10;97.30;;;;;;5016729;28;20448;-84
2023/05/24 05:01:17;;;;;;;4.80;1.43;;;9.00;97.30;;;;;;5011199;28;20170;-83
2023/05/24 05:03:44;;;;;;;10.30;2.43;;;9.00;97.30;;;;;;5011094;28;20239;-86
2023/05/24 05:06:10;;;;;;;1.30;1.20;;;9.10;97.30;;;;;;5009954;28;20217;-86
2023/05/24 05:08:35;;;;;;;6.70;2.57;;;9.10;97.30;;;;;;5010087;28;20456;-86
2023/05/24 05:11:01;;;;;;;4.90;3.10;;;9.10;97.30;;;;;;5010000;28;20592;-86
2023/05/24 05:13:27;;;;;;;11.70;3.93;;;9.10;97.30;;;;;;5020577;28;20189;-86
2023/05/24 05:15:52;;;;;;;1.83;1.30;;;9.10;97.30;;;;;;5010136;28;20714;-86
2023/05/24 05:18:18;;;;;;;3.00;2.80;;;9.10;97.30;;;;;;5017721;28;20548;-87
2023/05/24 05:20:43;;;;;;;2.70;2.20;;;9.10;97.30;;;;;;5017710;28;20174;-86
2023/05/24 05:23:09;;;;;;;1.23;1.13;;;9.10;97.30;;;;;;5010182;28;20271;-86
2023/05/24 05:25:34;;;;;;;1.40;1.30;;;9.20;97.30;;;;;;5010136;28;20212;-86
2023/05/24 05:28:00;;;;;;;4.73;2.30;;;9.20;97.30;;;;;;5011124;28;20188;-86
2023/05/24 05:30:26;;;;;;;22.90;2.97;;;9.20;97.30;;;;;;5019395;28;20181;-86
2023/05/24 05:32:51;;;;;;;2.70;1.90;;;9.20;97.30;;;;;;5009828;28;21015;-86
2023/05/24 05:35:17;;;;;;;5.33;1.67;;;9.20;97.30;;;;;;5009873;28;20211;-86
2023/05/24 05:37:42;;;;;;;1.60;1.50;;;9.20;97.30;;;;;;5010083;28;20181;-88
2023/05/24 05:40:08;;;;;;;12.87;2.10;;;9.30;97.30;;;;;;5009828;28;20176;-86
2023/05/24 05:42:34;;;;;;;2.30;2.10;;;9.30;97.30;;;;;;5015903;28;20180;-86
2023/05/24 05:44:59;;;;;;;2.67;1.93;;;9.30;97.30;;;;;;5012121;28;20551;-86
2023/05/24 05:47:25;;;;;;;13.10;3.37;;;9.40;97.30;;;;;;5017556;28;20189;-87
2023/05/24 05:49:50;;;;;;;3.40;2.30;;;9.40;97.30;;;;;;5009482;28;20668;-86
2023/05/24 05:52:16;;;;;;;2.50;1.77;;;9.50;97.30;;;;;;5009463;28;20635;-86
2023/05/24 05:54:41;;;;;;;14.00;3.43;;;9.50;97.30;;;;;;5008738;28;20217;-86
2023/05/24 05:57:09;;;;;;;3.63;3.43;;;9.60;97.30;;;;;;5009680;28;20353;-86
2023/05/24 05:59:34;;;;;;;2.07;1.93;;;9.60;97.30;;;;;;5009119;28;20184;-87
2023/05/24 06:02:01;;;;;;;2.80;1.70;;;9.60;97.30;;;;;;5008977;28;20436;-86
2023/05/24 06:04:27;;;;;;;4.53;2.90;;;9.70;97.30;;;;;;5008847;28;20670;-86
2023/05/24 06:06:52;;;;;;;7.63;3.43;;;9.70;97.30;;;;;;5010489;28;20509;-88
2023/05/24 06:09:18;;;;;;;3.67;2.20;;;9.80;97.30;;;;;;5009125;28;20555;-86
2023/05/24 06:11:44;;;;;;;1.70;1.60;;;9.80;97.30;;;;;;5011979;28;20176;-86
2023/05/24 06:14:17;;;;;;;11.37;3.10;;;9.80;97.30;;;;;;5010074;28;20538;-86
2023/05/24 06:16:44;;;;;;;1.40;1.30;;;9.90;97.30;;;;;;5020816;28;20431;-84
2023/05/24 06:19:11;;;;;;;3.07;2.43;;;10.00;97.30;;;;;;5015877;28;20432;-86
2023/05/24 06:21:36;;;;;;;22.67;2.50;;;10.00;97.30;;;;;;5011429;28;20799;-86
2023/05/24 06:24:02;;;;;;;1.67;1.60;;;10.10;97.30;;;;;;5014122;28;20435;-85
2023/05/24 06:26:28;;;;;;;1.63;1.53;;;10.10;97.30;;;;;;5015684;28;20693;-85
2023/05/24 06:28:54;;;;;;;3.90;2.53;;;10.20;97.30;;;;;;5013665;28;20507;-83
2023/05/24 06:31:22;;;;;;;2.03;1.30;;;10.20;97.30;;;;;;5014175;28;20196;-83
2023/05/24 06:33:47;;;;;;;2.90;1.77;;;10.20;97.30;;;;;;5015171;28;20418;-84
2023/05/24 06:36:13;;;;;;;9.73;3.97;;;10.30;97.30;;;;;;5014879;28;20503;-86
2023/05/24 06:38:38;;;;;;;2.70;2.03;;;10.30;97.30;;;;;;5013355;28;20632;-84
2023/05/24 06:41:04;;;;;;;2.23;2.03;;;10.30;97.30;;;;;;5013574;28;20176;-86
2023/05/24 06:43:29;;;;;;;11.50;1.80;;;10.30;97.30;;;;;;5013663;28;20575;-84
2023/05/24 06:45:55;;;;;;;35.17;2.60;;;10.40;97.30;;;;;;5014645;28;20405;-84
2023/05/24 06:48:20;;;;;;;3.43;1.80;;;10.40;97.30;;;;;;5015423;28;20180;-87
2023/05/24 06:50:46;;;;;;;1.80;1.77;;;10.50;97.30;;;;;;5012748;28;20181;-83
2023/05/24 06:53:12;;;;;;;2.40;1.80;;;10.60;97.30;;;;;;5014303;28;20177;-83
2023/05/24 06:55:37;;;;;;;2.83;2.63;;;10.70;97.20;;;;;;5013763;28;20211;-84
2023/05/24 06:58:03;;;;;;;2.10;1.20;;;10.70;97.20;;;;;;5015732;28;20279;-83
2023/05/24 07:00:29;;;;;;;2.70;2.50;;;10.80;96.90;;;;;;5013815;28;20671;-84
2023/05/24 07:02:55;;;;;;;2.90;1.30;;;10.80;96.50;;;;;;5014299;28;20458;-83
2023/05/24 07:05:23;;;;;;;2.00;1.87;;;10.80;96.50;;;;;;5013692;28;20244;-86
2023/05/24 07:07:48;;;;;;;2.40;2.17;;;10.80;96.40;;;;;;5014265;28;20209;-84
2023/05/24 07:10:14;;;;;;;18.73;2.47;;;10.90;96.40;;;;;;5014014;28;20467;-85
2023/05/24 07:12:39;;;;;;;2.63;1.60;;;10.90;96.70;;;;;;5021818;28;20188;-86
2023/05/24 07:15:06;;;;;;;10.70;2.77;;;10.90;95.60;;;;;;5013061;28;20228;-86
2023/05/24 07:17:31;;;;;;;26.73;2.33;;;10.90;95.10;;;;;;5014029;28;20231;-84
2023/05/24 07:19:58;;;;;;;12.63;2.43;;;10.90;95.20;;;;;;5014071;28;20432;-86
2023/05/24 07:22:24;;;;;;;11.70;2.50;;;11.00;95.60;;;;;;5013282;28;20643;-86
2023/05/24 07:24:50;;;;;;;2.10;1.57;;;11.10;95.40;;;;;;5012654;28;20462;-85
2023/05/24 07:27:15;;;;;;;4.13;2.43;;;11.10;95.60;;;;;;5012166;28;20432;-86
2023/05/24 07:29:41;;;;;;;9.30;2.17;;;11.00;95.30;;;;;;5012611;28;20204;-85
2023/05/24 07:32:07;;;;;;;5.23;2.90;;;11.10;95.60;;;;;;5017212;28;20177;-86
2023/05/24 07:34:33;;;;;;;30.10;2.83;;;11.10;95.00;;;;;;5015433;28;20220;-86
2023/05/24 07:36:59;;;;;;;3.27;1.93;;;11.20;95.10;;;;;;5011594;28;20850;-85
2023/05/24 07:39:26;;;;;;;7.50;2.83;;;11.20;94.20;;;;;;5020061;28;20427;-84
2023/05/24 07:41:55;;;;;;;4.57;2.97;;;11.20;94.50;;;;;;5011555;28;20486;-86
2023/05/24 07:44:21;;;;;;;17.53;3.23;;;11.30;94.80;;;;;;5011933;28;20525;-85
2023/05/24 07:46:46;;;;;;;5.10;3.10;;;11.20;94.90;;;;;;5012093;28;20428;-85
2023/05/24 07:49:12;;;;;;;4.10;2.03;;;11.20;95.20;;;;;;5011890;28;20216;-86
2023/05/24 07:51:37;;;;;;;6.93;2.07;;;11.10;96.10;;;;;;5019737;28;20176;-85
2023/05/24 07:54:03;;;;;;;5.63;2.80;;;11.10;96.50;;;;;;5012082;28;20674;-85
2023/05/24 07:56:29;;;;;;;19.07;4.10;;;11.20;96.80;;;;;;5012165;28;20285;-86
2023/05/24 07:59:04;;;;;;;2.80;2.03;;;11.30;96.90;;;;;;5017295;28;20469;-85
2023/05/24 08:01:31;;;;;;;16.43;2.03;;;11.40;96.90;;;;;;5016844;28;20184;-85
2023/05/24 08:03:56;;;;;;;20.97;2.60;;;11.50;97.10;;;;;;5016994;28;20447;-85
2023/05/24 08:06:23;;;;;;;1.83;1.80;;;11.60;97.10;;;;;;5019089;28;20428;-85
2023/05/24 08:08:48;;;;;;;26.80;4.10;;;11.70;96.60;;;;;;5012701;28;20272;-85
2023/05/24 08:11:14;;;;;;;1.60;1.50;;;11.80;96.70;;;;;;5012125;28;20531;-86
2023/05/24 08:13:39;;;;;;;6.60;3.53;;;11.90;96.60;;;;;;5014465;28;20196;-86
2023/05/24 08:16:05;;;;;;;5.00;2.50;;;12.00;95.90;;;;;;5019421;28;20307;-86
2023/05/24 08:18:30;;;;;;;1.87;1.80;;;12.20;96.20;;;;;;5021557;28;20189;-85
2023/05/24 08:20:56;;;;;;;14.37;3.83;;;12.30;95.90;;;;;;5011949;28;20188;-85
2023/05/24 08:23:21;;;;;;;2.47;2.20;;;12.30;94.50;;;;;;5014285;28;20268;-85
2023/05/24 08:25:47;;;;;;;15.67;3.33;;;12.20;93.10;;;;;;5011284;28;20228;-86
2023/05/24 08:28:13;;;;;;;4.73;3.07;;;12.20;93.80;;;;;;5012498;28;20177;-85
2023/05/24 08:30:38;;;;;;;25.57;2.07;;;12.10;94.10;;;;;;5010741;28;20559;-86
2023/05/24 08:33:04;;;;;;;23.83;3.60;;;12.10;94.30;;;;;;5011721;28;20401;-86
2023/05/24 08:35:29;;;;;;;1.40;1.30;;;12.10;95.10;;;;;;5011170;28;20768;-85
2023/05/24 08:37:55;;;;;;;1.93;1.83;;;12.10;94.70;;;;;;5014525;28;20184;-87
2023/05/24 08:40:22;;;;;;;19.13;3.23;;;12.10;94.10;;;;;;5017768;28;20181;-85
2023/05/24 08:42:49;;;;;;;2.13;1.93;;;12.10;93.10;;;;;;5011102;28;20174;-85
2023/05/24 08:45:15;;;;;;;3.83;2.13;;;12.10;93.90;;;;;;5011545;28;21012;-85
2023/05/24 08:47:41;;;;;;;4.20;1.83;;;12.10;94.20;;;;;;5019572;28;20463;-86
2023/05/24 08:50:07;;;;;;;8.10;3.10;;;12.20;94.70;;;;;;5011120;28;20169;-86
2023/05/24 08:52:33;;;;;;;2.80;2.10;;;12.30;95.20;;;;;;5009826;28;20428;-85
2023/05/24 08:54:59;;;;;;;3.93;1.90;;;12.50;95.10;;;;;;5009545;28;20960;-85
2023/05/24 08:57:30;;;;;;;9.77;4.73;;;12.60;94.80;;;;;;5010638;28;20424;-86
2023/05/24 08:59:55;;;;;;;22.33;4.00;;;12.60;94.00;;;;;;5010486;28;20504;-85
2023/05/24 09:02:22;;;;;;;8.50;3.73;;;12.60;94.30;;;;;;5011360;28;20416;-85
2023/05/24 09:04:52;;;;;;;4.83;3.10;;;12.70;94.00;;;;;;5011887;28;20495;-85
2023/05/24 09:07:23;;;;;;;1.63;1.53;;;12.70;93.80;;;;;;5011850;28;20466;-85
2023/05/24 09:09:57;;;;;;;3.50;2.13;;;12.70;93.00;;;;;;5010828;28;20774;-85
2023/05/24 09:12:25;;;;;;;1.90;1.80;;;12.70;92.60;;;;;;5018739;28;20455;-85
2023/05/24 09:14:51;;;;;;;1.40;1.30;;;12.70;92.80;;;;;;5010446;28;21010;-86
2023/05/24 09:17:18;;;;;;;12.60;2.03;;;12.70;91.80;;;;;;5010719;28;20432;-85
2023/05/24 09:19:46;;;;;;;8.17;3.40;;;12.70;91.10;;;;;;5010203;28;20548;-86
2023/05/24 09:22:13;;;;;;;1.97;1.83;;;12.80;90.80;;;;;;5010236;28;20420;-85
2023/05/24 09:24:49;;;;;;;4.93;2.43;;;12.90;89.60;;;;;;5011392;28;21011;-85
2023/05/24 09:27:20;;;;;;;7.20;2.03;;;12.90;89.70;;;;;;5016726;28;20942;-85
2023/05/24 09:29:50;;;;;;;3.20;2.80;;;13.00;90.00;;;;;;5018883;28;20495;-86
2023/05/24 09:32:17;;;;;;;7.10;2.50;;;13.00;90.30;;;;;;5010173;28;20498;-86
2023/05/24 09:34:46;;;;;;;10.20;2.33;;;13.00;90.80;;;;;;5011523;28;20984;-86
2023/05/24 09:37:15;;;;;;;5.57;3.30;;;13.00;91.40;;;;;;5016714;28;20419;-86
2023/05/24 09:39:46;;;;;;;11.33;1.30;;;12.90;92.40;;;;;;5010615;28;20955;-86
2023/05/24 09:42:17;;;;;;;6.10;3.00;;;12.70;92.90;;;;;;5009957;28;20430;-85
2023/05/24 09:44:43;;;;;;;28.67;2.80;;;12.70;93.00;;;;;;5018667;28;20455;-86
2023/05/24 09:47:11;;;;;;;6.27;2.20;;;12.60;92.80;;;;;;5010918;28;20424;-85
2023/05/24 09:49:36;;;;;;;3.27;1.77;;;12.60;92.30;;;;;;5019323;28;20181;-86
2023/05/24 09:52:02;;;;;;;12.13;3.20;;;12.60;91.40;;;;;;5022192;28;20419;-85
2023/05/24 09:54:27;;;;;;;1.90;1.83;;;12.60;91.60;;;;;;5014173;28;20578;-86
2023/05/24 09:56:53;;;;;;;9.93;2.80;;;12.70;91.80;;;;;;5014364;28;20196;-85
2023/05/24 09:59:21;;;;;;;3.00;1.93;;;12.70;92.90;;;;;;5015759;28;20188;-85
2023/05/24 10:01:52;;;;;;;3.30;2.80;;;12.80;93.80;;;;;;5016349;28;20180;-85
2023/05/24 10:04:18;;;;;;;1.73;1.63;;;12.90;93.80;;;;;;5020498;28;21021;-86
2023/05/24 10:06:46;;;;;;;4.23;2.83;;;13.00;93.10;;;;;;5015670;28;20440;-86
2023/05/24 10:09:13;;;;;;;3.50;3.37;;;13.10;92.80;;;;;;5023118;28;20177;-87
2023/05/24 10:11:40;;;;;;;5.70;2.03;;;13.20;93.70;;;;;;5014166;28;20412;-85
2023/05/24 10:14:08;;;;;;;6.10;4.80;;;13.30;92.80;;;;;;5036031;23;20460;-88
2023/05/24 10:16:36;;;;;;;5.60;3.00;;;13.20;92.90;;;;;;4993664;28;20440;-89
2023/05/24 10:19:04;;;;;;;9.30;2.43;;;13.20;92.60;;;;;;4993964;28;20429;-89
2023/05/24 10:21:34;;;;;;;1.87;1.77;;;13.10;93.00;;;;;;4973432;28;20800;-89
2023/05/24 10:24:02;;;;;;;8.63;4.67;;;13.10;93.00;;;;;;5001450;28;20455;-90
2023/05/24 10:26:35;;;;;;;4.83;2.97;;;13.10;93.70;;;;;;4993894;28;20435;-90
2023/05/24 10:29:10;;;;;;;3.80;2.50;;;13.20;93.20;;;;;;4993499;28;20423;-89
2023/05/24 10:31:39;;;;;;;1.87;1.77;;;13.20;91.10;;;;;;4993061;28;20934;-87
2023/05/24 10:34:06;;;;;;;1.80;1.70;;;13.20;91.20;;;;;;4993474;28;20425;-89
2023/05/24 10:36:32;;;;;;;2.20;2.00;;;13.30;89.80;;;;;;4993543;28;20427;-90
2023/05/24 10:38:58;;;;;;;4.60;3.87;;;13.40;90.80;;;;;;4994341;28;20730;-89
2023/05/24 10:41:27;;;;;;;4.67;1.93;;;13.40;90.50;;;;;;4992626;28;20514;-90
2023/05/24 10:43:55;;;;;;;6.10;2.70;;;13.40;89.30;;;;;;4993039;28;20923;-89
2023/05/24 10:46:22;;;;;;;11.13;3.77;;;13.40;89.40;;;;;;4993261;28;20440;-90
2023/05/24 10:48:59;;;;;;;8.57;4.03;;;13.40;90.70;;;;;;4993966;28;20903;-90
2023/05/24 10:51:37;;;;;;;3.03;2.80;;;13.30;91.80;;;;;;4992635;28;20424;-90
2023/05/24 10:54:25;;;;;;;8.23;3.00;;;13.20;92.70;;;;;;4993160;28;20477;-90
2023/05/24 10:56:52;;;;;;;4.20;2.70;;;13.10;92.80;;;;;;4993610;28;20421;-87
2023/05/24 10:59:37;;;;;;;4.27;3.30;;;13.00;93.30;;;;;;4996264;28;20421;-89
2023/05/24 11:02:08;;;;;;;15.43;3.47;;;12.90;93.50;;;;;;4991726;28;20432;-89
2023/05/24 11:04:37;;;;;;;3.27;1.70;;;12.90;93.50;;;;;;4992847;28;20522;-89
2023/05/24 11:07:08;;;;;;;5.00;3.70;;;12.90;93.70;;;;;;4984829;28;20459;-89
2023/05/24 11:09:35;;;;;;;2.90;2.70;;;12.90;93.50;;;;;;4996224;28;20416;-89
2023/05/24 11:12:06;;;;;;;8.03;2.27;;;12.90;93.70;;;;;;4992733;28;20796;-89
2023/05/24 11:14:36;;;;;;;5.83;2.23;;;13.00;94.00;;;;;;4992157;28;20461;-89
2023/05/24 11:17:04;;;;;;;4.30;1.90;;;13.10;93.40;;;;;;4996211;28;20457;-89
2023/05/24 11:19:37;;;;;;;11.63;3.27;;;13.20;92.60;;;;;;4995753;28;20423;-89
2023/05/24 11:22:06;;;;;;;2.60;2.30;;;13.30;92.90;;;;;;4983251;28;20428;-89
2023/05/24 11:24:32;;;;;;;6.90;2.57;;;13.50;92.50;;;;;;4991812;28;20468;-90
2023/05/24 11:27:00;;;;;;;4.00;2.13;;;13.60;91.80;;;;;;4989944;28;20413;-89
2023/05/24 11:29:27;;;;;;;2.93;1.63;;;13.70;91.40;;;;;;4992491;28;20503;-89
2023/05/24 11:32:05;;;;;;;3.43;2.60;;;13.80;91.20;;;;;;4991550;28;20428;-90
2023/05/24 11:34:31;;;;;;;17.53;2.23;;;13.90;91.20;;;;;;5000761;28;21093;-89
2023/05/24 11:37:01;;;;;;;2.63;2.43;;;13.90;91.60;;;;;;4991815;28;20425;-89
2023/05/24 11:39:35;;;;;;;1.73;1.57;;;13.90;91.60;;;;;;4993576;28;20429;-90
2023/05/24 11:42:03;;;;;;;12.50;3.07;;;13.90;91.60;;;;;;4994267;28;20719;-91
2023/05/24 11:44:30;;;;;;;5.57;3.03;;;13.90;91.60;;;;;;5017306;28;20488;-92
2023/05/24 11:46:58;;;;;;;2.60;2.40;;;13.90;90.70;;;;;;5017341;28;20440;-91
2023/05/24 11:49:24;;;;;;;1.73;1.63;;;13.90;90.30;;;;;;5009345;28;20826;-90
2023/05/24 11:51:56;;;;;;;6.03;3.20;;;13.90;91.10;;;;;;4995845;28;20422;-89
2023/05/24 11:54:22;;;;;;;6.63;2.23;;;13.90;91.10;;;;;;4996517;28;20428;-90
2023/05/24 11:56:48;;;;;;;5.00;1.70;;;13.90;92.50;;;;;;4996724;28;20429;-89
2023/05/24 11:59:23;;;;;;;4.90;2.70;;;13.90;92.50;;;;;;4994230;28;20425;-89
2023/05/24 12:02:03;;;;;;;5.33;3.43;;;13.90;93.50;;;;;;4989192;28;20193;-90
2023/05/24 12:04:33;;;;;;;2.90;2.30;;;13.90;93.10;;;;;;4988912;28;20460;-90
2023/05/24 12:07:03;;;;;;;7.20;2.60;;;13.90;92.10;;;;;;4991625;28;20869;-90
2023/05/24 12:09:31;;;;;;;2.57;2.40;;;14.00;91.30;;;;;;4987983;28;20420;-90
2023/05/24 12:11:57;;;;;;;7.60;2.03;;;14.10;92.40;;;;;;4990958;28;20464;-90
2023/05/24 12:14:31;;;;;;;10.77;2.67;;;14.10;90.90;;;;;;4990123;28;20464;-89
2023/05/24 12:17:00;;;;;;;7.60;2.93;;;14.20;90.80;;;;;;4991309;28;20201;-89
2023/05/24 12:19:37;;;;;;;2.57;1.97;;;14.30;91.30;;;;;;4991461;28;20440;-90
2023/05/24 12:22:07;;;;;;;4.73;3.10;;;14.40;90.20;;;;;;5007029;28;20429;-89
2023/05/24 12:24:34;;;;;;;8.67;2.93;;;14.60;89.20;;;;;;4991525;28;20471;-90
2023/05/24 12:27:04;;;;;;;3.00;2.80;;;14.80;89.80;;;;;;4990210;28;20417;-91
2023/05/24 12:29:38;;;;;;;1.30;1.20;;;14.90;87.60;;;;;;4992246;28;20420;-90
2023/05/24 12:32:05;;;;;;;1.83;1.70;;;15.10;87.40;;;;;;4990731;28;20417;-90
2023/05/24 12:34:33;;;;;;;6.90;2.47;;;15.20;87.60;;;;;;4987904;28;21055;-90
2023/05/24 12:36:59;;;;;;;5.90;2.03;;;15.30;87.90;;;;;;4988249;28;20442;-90
2023/05/24 12:39:30;;;;;;;1.50;1.40;;;15.30;86.60;;;;;;4991665;28;20515;-88
2023/05/24 12:41:56;;;;;;;12.43;2.80;;;15.40;87.30;;;;;;5017567;28;20178;-89
2023/05/24 12:44:24;;;;;;;2.70;1.63;;;15.60;88.20;;;;;;5003152;28;20480;-90
2023/05/24 12:46:53;;;;;;;1.57;1.30;;;15.90;88.90;;;;;;5005230;28;20516;-90
2023/05/24 12:49:19;;;;;;;3.80;2.27;;;16.10;86.20;;;;;;4996470;28;20417;-90
2023/05/24 12:51:44;;;;;;;2.20;1.57;;;16.20;85.90;;;;;;4990004;28;20419;-90
2023/05/24 12:54:12;;;;;;;1.77;1.43;;;16.20;84.80;;;;;;4990619;28;20698;-89
2023/05/24 12:56:38;;;;;;;3.50;2.00;;;16.40;87.10;;;;;;4986481;28;20273;-90
2023/05/24 12:59:03;;;;;;;3.30;1.77;;;16.60;83.30;;;;;;4984622;28;20520;-90
2023/05/24 13:01:29;;;;;;;2.80;2.20;;;16.60;83.60;;;;;;4982565;28;20583;-89
2023/05/24 13:03:55;;;;;;;7.13;2.60;;;16.60;85.20;;;;;;4985577;28;20236;-89
2023/05/24 13:06:23;;;;;;;7.27;2.20;;;16.60;84.50;;;;;;4991381;28;20899;-89
2023/05/24 13:08:49;;;;;;;5.03;3.00;;;16.40;85.20;;;;;;4986971;28;20217;-89
2023/05/24 13:11:15;;;;;;;1.60;1.23;;;16.50;87.70;;;;;;4986594;28;20429;-90
2023/05/24 13:13:42;;;;;;;11.37;2.73;;;16.80;86.70;;;;;;4984141;28;20244;-90
2023/05/24 13:16:13;;;;;;;2.10;1.77;;;17.00;85.10;;;;;;4986378;28;20336;-90
2023/05/24 13:18:46;;;;;;;8.53;2.50;;;17.20;83.30;;;;;;5004393;28;20428;-89
2023/05/24 13:21:12;;;;;;;1.60;1.50;;;17.20;83.40;;;;;;4984535;28;20475;-89
2023/05/24 13:23:38;;;;;;;1.37;1.27;;;17.30;83.70;;;;;;4991811;28;20428;-90
2023/05/24 13:26:05;;;;;;;6.17;2.80;;;17.40;82.20;;;;;;4986770;28;20220;-88
2023/05/24 13:28:32;;;;;;;5.70;1.67;;;17.60;83.30;;;;;;4991974;28;20424;-87
2023/05/24 13:31:00;;;;;;;2.40;2.30;;;17.70;82.80;;;;;;4990071;28;20422;-88
2023/05/24 13:33:25;;;;;;;1.60;1.60;;;17.90;83.30;;;;;;4997020;28;20425;-87
2023/05/24 13:35:54;;;;;;;9.93;4.43;;;17.90;83.20;;;;;;4991597;28;20813;-87
2023/05/24 13:38:23;;;;;;;7.27;2.90;;;18.00;84.60;;;;;;4995161;28;20193;-86
2023/05/24 13:40:48;;;;;;;2.47;1.70;;;17.90;82.00;;;;;;4991001;28;21019;-89
2023/05/24 13:43:14;;;;;;;2.00;1.73;;;17.70;82.60;;;;;;4992080;28;20520;-86
2023/05/24 13:45:40;;;;;;;1.63;1.47;;;17.40;82.70;;;;;;4991981;28;20198;-87
2023/05/24 13:48:05;;;;;;;7.10;1.67;;;17.00;81.50;;;;;;5006518;28;20541;-86
2023/05/24 13:50:35;;;;;;;4.60;3.23;;;16.80;82.60;;;;;;4996891;28;20556;-88
2023/05/24 13:53:02;;;;;;;2.37;2.20;;;16.60;84.00;;;;;;4990723;28;20184;-86
2023/05/24 13:55:30;;;;;;;3.73;2.70;;;16.60;84.10;;;;;;4993040;28;20455;-88
2023/05/24 13:57:56;;;;;;;7.93;4.23;;;16.90;85.80;;;;;;4992742;28;20421;-86
2023/05/24 14:00:22;;;;;;;1.70;1.60;;;17.10;85.30;;;;;;4991773;28;20421;-86
2023/05/24 14:02:48;;;;;;;18.07;2.73;;;17.20;83.30;;;;;;4999343;28;20604;-86
2023/05/24 14:05:14;;;;;;;2.60;1.87;;;17.30;82.00;;;;;;4992499;28;20479;-86
2023/05/24 14:07:42;;;;;;;3.13;2.10;;;17.40;82.10;;;;;;4993392;28;20910;-88
2023/05/24 14:10:08;;;;;;;4.47;4.17;;;17.70;82.80;;;;;;5006210;28;20186;-86
2023/05/24 14:12:34;;;;;;;2.30;1.87;;;17.80;81.10;;;;;;4992075;28;20432;-88
2023/05/24 14:15:00;;;;;;;6.77;4.70;;;17.80;81.20;;;;;;4990023;28;20469;-86
2023/05/24 14:17:26;;;;;;;5.50;3.10;;;17.70;81.80;;;;;;4992198;28;20232;-87
2023/05/24 14:19:51;;;;;;;2.43;2.20;;;17.60;81.40;;;;;;4988474;28;20429;-86
2023/05/24 14:22:17;;;;;;;6.93;1.47;;;17.40;81.00;;;;;;4991409;28;20182;-86
2023/05/24 14:24:44;;;;;;;1.30;1.20;;;17.20;80.90;;;;;;4986480;28;20233;-87
2023/05/24 14:27:12;;;;;;;1.73;1.63;;;17.00;81.30;;;;;;4991207;28;20170;-88
2023/05/24 14:29:37;;;;;;;2.20;1.30;;;16.80;81.60;;;;;;4989671;28;20472;-88
2023/05/24 14:32:03;;;;;;;2.33;2.13;;;16.60;81.10;;;;;;4998762;28;21087;-88
2023/05/24 14:34:29;;;;;;;1.43;1.33;;;16.50;81.50;;;;;;4986002;28;20207;-87
2023/05/24 14:36:54;;;;;;;4.10;1.90;;;16.50;81.20;;;;;;4982024;28;20198;-87
2023/05/24 14:39:20;;;;;;;1.83;1.73;;;16.50;81.00;;;;;;4991691;28;20257;-87
2023/05/24 14:41:46;;;;;;;1.50;1.50;;;16.60;80.30;;;;;;5001871;28;20181;-86
2023/05/24 14:44:11;;;;;;;2.00;1.40;;;16.80;82.90;;;;;;4995763;28;20405;-86
2023/05/24 14:46:39;;;;;;;1.40;1.30;;;17.20;83.30;;;;;;4994961;28;20180;-89
2023/05/24 14:49:04;;;;;;;3.43;1.80;;;17.60;81.10;;;;;;4996115;28;20188;-88
2023/05/24 14:51:30;;;;;;;2.60;1.57;;;17.70;81.90;;;;;;4991571;28;20791;-87
2023/05/24 14:53:55;;;;;;;2.03;1.93;;;18.00;81.00;;;;;;4992428;28;20173;-86
2023/05/24 14:56:21;;;;;;;2.07;1.93;;;18.30;81.40;;;;;;4991943;28;20182;-86
2023/05/24 14:58:47;;;;;;;3.27;2.53;;;18.40;78.10;;;;;;4991982;28;20273;-86
2023/05/24 15:01:12;;;;;;;4.00;2.70;;;18.40;77.60;;;;;;4987272;28;20476;-86
2023/05/24 15:03:38;;;;;;;2.33;1.80;;;18.50;81.00;;;;;;4991603;28;20214;-86
2023/05/24 15:06:04;;;;;;;3.17;2.80;;;18.80;79.60;;;;;;4995210;28;20204;-86
2023/05/24 15:08:30;;;;;;;2.90;1.80;;;18.90;79.00;;;;;;5003338;28;20760;-87
2023/05/24 15:10:55;;;;;;;13.17;1.93;;;18.70;78.70;;;;;;4990546;28;20182;-89
2023/05/24 15:13:24;;;;;;;2.00;1.90;;;18.50;80.00;;;;;;4985321;28;20175;-91
2023/05/24 15:15:55;;;;;;;1.87;1.30;;;18.40;79.40;;;;;;4984500;28;20332;-89
2023/05/24 15:18:26;;;;;;;4.60;3.00;;;18.20;80.20;;;;;;4986653;28;20425;-90
2023/05/24 15:20:53;;;;;;;6.93;1.70;;;17.80;79.50;;;;;;5005319;28;20479;-86
2023/05/24 15:23:24;;;;;;;3.30;2.83;;;17.30;80.20;;;;;;5005624;28;20646;-87
2023/05/24 15:25:54;;;;;;;5.60;2.37;;;16.90;81.50;;;;;;4992741;28;20471;-89
2023/05/24 15:28:20;;;;;;;6.10;1.30;;;16.70;82.30;;;;;;4997624;28;20491;-87
2023/05/24 15:30:46;;;;;;;12.97;10.53;;;16.50;82.00;;;;;;4993808;28;20938;-87
2023/05/24 15:33:12;;;;;;;4.50;2.20;;;16.40;82.90;;;;;;4998729;28;20528;-86
2023/05/24 15:35:38;;;;;;;1.93;1.83;;;16.30;83.80;;;;;;4987167;28;20212;-88
2023/05/24 15:38:04;;;;;;;12.10;2.03;;;16.30;83.70;;;;;;4999067;28;20417;-87
2023/05/24 15:40:30;;;;;;;4.43;2.30;;;16.20;84.70;;;;;;4993031;28;20678;-87
2023/05/24 15:42:56;;;;;;;2.70;2.13;;;16.20;84.50;;;;;;4996593;28;20421;-87
2023/05/24 15:45:21;;;;;;;1.20;1.10;;;16.10;84.30;;;;;;4982634;28;20257;-88
2023/05/24 15:47:46;;;;;;;1.20;1.10;;;16.10;84.50;;;;;;5009652;28;20205;-88
2023/05/24 15:50:12;;;;;;;1.77;1.73;;;16.50;85.50;;;;;;4992782;28;20173;-86
2023/05/24 15:52:38;;;;;;;7.77;1.50;;;16.90;83.90;;;;;;4999017;28;20422;-88
2023/05/24 15:55:03;;;;;;;2.70;2.27;;;17.20;82.80;;;;;;4994101;28;20296;-89
2023/05/24 15:57:37;;;;;;;2.83;2.70;;;17.10;83.00;;;;;;4996272;28;20715;-89
2023/05/24 16:00:02;;;;;;;2.17;1.43;;;17.00;83.70;;;;;;4993842;28;20186;-88
2023/05/24 16:02:29;;;;;;;1.93;1.83;;;16.90;83.70;;;;;;4993293;28;20922;-87
2023/05/24 16:04:56;;;;;;;1.80;1.73;;;16.90;83.90;;;;;;5021914;28;20197;-90
2023/05/24 16:07:22;;;;;;;1.53;1.43;;;17.10;83.00;;;;;;5009668;28;20414;-89
2023/05/24 16:09:49;;;;;;;1.40;1.30;;;17.10;82.10;;;;;;5013465;28;20421;-87
2023/05/24 16:12:16;;;;;;;3.80;2.20;;;17.20;82.40;;;;;;4994198;28;20421;-88
2023/05/24 16:14:41;;;;;;;1.70;1.60;;;17.20;83.00;;;;;;5014726;23;20469;-86
2023/05/24 16:17:07;;;;;;;1.87;1.80;;;17.40;82.20;;;;;;5009905;28;20650;-84
2023/05/24 16:19:33;;;;;;;1.37;1.27;;;17.60;82.50;;;;;;5011364;28;20173;-83
2023/05/24 16:21:58;;;;;;;5.63;4.17;;;17.70;82.30;;;;;;5012797;28;20202;-83
2023/05/24 16:24:24;;;;;;;3.60;3.17;;;17.80;81.60;;;;;;5013004;28;20209;-80
2023/05/24 16:26:50;;;;;;;2.27;1.83;;;18.10;81.40;;;;;;5002787;28;20202;-83
2023/05/24 16:29:16;;;;;;;5.20;3.33;;;18.30;80.90;;;;;;5006609;28;20540;-80
2023/05/24 16:31:42;;;;;;;6.93;3.47;;;18.40;79.90;;;;;;5010567;28;20181;-83
2023/05/24 16:34:07;;;;;;;1.53;1.43;;;18.50;79.40;;;;;;5000989;28;20412;-84
2023/05/24 16:36:33;;;;;;;5.50;2.00;;;18.60;79.70;;;;;;5007428;28;20229;-84
2023/05/24 16:38:59;;;;;;;2.63;1.30;;;18.70;80.10;;;;;;5011155;28;20196;-83
2023/05/24 16:41:25;;;;;;;1.60;1.50;;;18.70;78.90;;;;;;5003988;28;20238;-82
2023/05/24 16:43:51;;;;;;;6.83;2.97;;;18.70;79.00;;;;;;5010133;28;20280;-80
2023/05/24 16:46:16;;;;;;;2.80;2.43;;;18.70;78.80;;;;;;5005717;28;20547;-81